sensor_id;sensor_type;location;lat;lon;timestamp;pressure;altitude;pressure_sealevel;temperature;humidity
32873;BME280;19224;52.462;16.898;2023-03-30T00:01:54;100050.42;;;8.45;99.01
32873;BME280;19224;52.462;16.898;2023-03-30T00:04:24;100040.09;;;8.46;99.23
32873;BME280;19224;52.462;16.898;2023-03-30T00:06:55;100039.29;;;8.44;99.56
32873;BME280;19224;52.462;16.898;2023-03-30T00:09:26;100035.36;;;8.41;99.16
32873;BME280;19224;52.462;16.898;2023-03-30T00:11:58;100037.95;;;8.44;99.77
32873;BME280;19224;52.462;16.898;2023-03-30T00:14:31;100031.64;;;8.45;99.25
32873;BME280;19224;52.462;16.898;2023-03-30T00:17:08;100034.64;;;8.48;99.14
32873;BME280;19224;52.462;16.898;2023-03-30T00:19:38;100034.19;;;8.48;99.03
32873;BME280;19224;52.462;16.898;2023-03-30T00:22:09;100027.08;;;8.47;99.08
32873;BME280;19224;52.462;16.898;2023-03-30T00:24:40;100024.94;;;8.45;99.04
32873;BME280;19224;52.462;16.898;2023-03-30T00:27:13;100024.31;;;8.49;98.94
32873;BME280;19224;52.462;16.898;2023-03-30T00:29:44;100013.27;;;8.46;99.23
32873;BME280;19224;52.462;16.898;2023-03-30T00:32:15;100015.45;;;8.47;98.94
32873;BME280;19224;52.462;16.898;2023-03-30T00:34:48;100021.94;;;8.53;98.88
32873;BME280;19224;52.462;16.898;2023-03-30T00:37:23;100015.77;;;8.51;99.07
32873;BME280;19224;52.462;16.898;2023-03-30T00:39:54;100018.95;;;8.49;99.10
32873;BME280;19224;52.462;16.898;2023-03-30T00:42:28;100013.48;;;8.52;98.99
32873;BME280;19224;52.462;16.898;2023-03-30T00:45:24;100008.52;;;8.53;99.08
32873;BME280;19224;52.462;16.898;2023-03-30T00:48:23;100011.65;;;8.52;99.37
32873;BME280;19224;52.462;16.898;2023-03-30T00:51:06;100006.41;;;8.49;99.21
32873;BME280;19224;52.462;16.898;2023-03-30T00:53:45;100001.19;;;8.46;99.64
32873;BME280;19224;52.462;16.898;2023-03-30T00:56:20;99999.04;;;8.44;99.69
32873;BME280;19224;52.462;16.898;2023-03-30T00:58:51;100004.27;;;8.47;100.00
32873;BME280;19224;52.462;16.898;2023-03-30T01:01:24;99993.59;;;8.46;100.00
32873;BME280;19224;52.462;16.898;2023-03-30T01:03:59;99992.73;;;8.45;100.00
32873;BME280;19224;52.462;16.898;2023-03-30T01:06:33;99991.84;;;8.45;100.00
32873;BME280;19224;52.462;16.898;2023-03-30T01:09:06;99988.48;;;8.40;100.00
32873;BME280;19224;52.462;16.898;2023-03-30T01:11:38;99987.23;;;8.48;100.00
32873;BME280;19224;52.462;16.898;2023-03-30T01:14:11;99982.72;;;8.49;100.00
32873;BME280;19224;52.462;16.898;2023-03-30T01:17:05;99981.46;;;8.47;100.00
32873;BME280;19224;52.462;16.898;2023-03-30T01:28:33;99977.03;;;8.46;100.00
32873;BME280;19224;52.462;16.898;2023-03-30T01:36:55;99971.27;;;8.45;100.00
32873;BME280;19224;52.462;16.898;2023-03-30T01:39:49;99974.89;;;8.44;100.00
32873;BME280;19224;52.462;16.898;2023-03-30T01:48:29;99958.13;;;8.38;100.00
32873;BME280;19224;52.462;16.898;2023-03-30T01:51:05;99952.86;;;8.36;100.00
32873;BME280;19224;52.462;16.898;2023-03-30T01:53:53;99949.38;;;8.34;100.00
32873;BME280;19224;52.462;16.898;2023-03-30T01:56:46;99946.78;;;8.31;100.00
32873;BME280;19224;52.462;16.898;2023-03-30T02:02:09;99936.91;;;8.22;100.00
32873;BME280;19224;52.462;16.898;2023-03-30T02:04:44;99942.63;;;8.24;100.00
32873;BME280;19224;52.462;16.898;2023-03-30T02:07:21;99934.50;;;8.26;100.00
32873;BME280;19224;52.462;16.898;2023-03-30T02:09:54;99925.30;;;8.21;100.00
32873;BME280;19224;52.462;16.898;2023-03-30T02:12:28;99928.33;;;8.24;100.00
32873;BME280;19224;52.462;16.898;2023-03-30T02:15:05;99934.69;;;8.21;100.00
32873;BME280;19224;52.462;16.898;2023-03-30T02:17:38;99934.23;;;8.22;100.00
32873;BME280;19224;52.462;16.898;2023-03-30T02:20:10;99927.17;;;8.19;100.00
32873;BME280;19224;52.462;16.898;2023-03-30T02:22:48;99928.52;;;8.19;100.00
32873;BME280;19224;52.462;16.898;2023-03-30T02:25:18;99925.48;;;8.17;100.00
32873;BME280;19224;52.462;16.898;2023-03-30T02:27:52;99920.47;;;8.19;100.00
32873;BME280;19224;52.462;16.898;2023-03-30T02:30:26;99923.15;;;8.19;100.00
32873;BME280;19224;52.462;16.898;2023-03-30T02:32:59;99910.52;;;8.11;100.00
32873;BME280;19224;52.462;16.898;2023-03-30T02:42:21;99906.22;;;8.17;100.00
32873;BME280;19224;52.462;16.898;2023-03-30T02:57:42;99890.91;;;8.09;100.00
32873;BME280;19224;52.462;16.898;2023-03-30T03:00:17;99882.59;;;8.05;100.00
32873;BME280;19224;52.462;16.898;2023-03-30T03:02:51;99888.63;;;8.00;100.00
32873;BME280;19224;52.462;16.898;2023-03-30T03:05:22;99875.27;;;7.99;100.00
32873;BME280;19224;52.462;16.898;2023-03-30T03:07:54;99875.62;;;8.01;100.00
32873;BME280;19224;52.462;16.898;2023-03-30T03:10:25;99879.11;;;8.03;100.00
32873;BME280;19224;52.462;16.898;2023-03-30T03:12:56;99877.36;;;8.02;100.00
32873;BME280;19224;52.462;16.898;2023-03-30T03:15:26;99881.39;;;8.02;100.00
32873;BME280;19224;52.462;16.898;2023-03-30T03:17:57;99879.34;;;7.97;100.00
32873;BME280;19224;52.462;16.898;2023-03-30T03:20:29;99876.96;;;8.01;100.00
32873;BME280;19224;52.462;16.898;2023-03-30T03:23:00;99873.39;;;8.01;100.00
32873;BME280;19224;52.462;16.898;2023-03-30T03:25:32;99870.84;;;7.98;100.00
32873;BME280;19224;52.462;16.898;2023-03-30T03:28:04;99867.62;;;8.00;100.00
32873;BME280;19224;52.462;16.898;2023-03-30T03:30:35;99859.63;;;7.98;100.00
32873;BME280;19224;52.462;16.898;2023-03-30T03:33:06;99856.23;;;7.95;100.00
32873;BME280;19224;52.462;16.898;2023-03-30T03:35:42;99850.88;;;7.95;100.00
32873;BME280;19224;52.462;16.898;2023-03-30T03:38:08;99851.78;;;7.94;100.00
32873;BME280;19224;52.462;16.898;2023-03-30T03:40:43;99848.03;;;7.88;100.00
32873;BME280;19224;52.462;16.898;2023-03-30T03:43:13;99853.20;;;7.92;100.00
32873;BME280;19224;52.462;16.898;2023-03-30T03:45:46;99844.86;;;7.88;100.00
32873;BME280;19224;52.462;16.898;2023-03-30T03:48:20;99842.09;;;7.80;100.00
32873;BME280;19224;52.462;16.898;2023-03-30T03:50:57;99844.00;;;7.88;100.00
32873;BME280;19224;52.462;16.898;2023-03-30T03:53:30;99834.63;;;7.88;100.00
32873;BME280;19224;52.462;16.898;2023-03-30T03:56:02;99838.59;;;7.89;100.00
32873;BME280;19224;52.462;16.898;2023-03-30T03:58:33;99832.39;;;7.87;100.00
32873;BME280;19224;52.462;16.898;2023-03-30T04:01:04;99834.09;;;7.90;100.00
32873;BME280;19224;52.462;16.898;2023-03-30T04:03:34;99830.41;;;7.92;100.00
32873;BME280;19224;52.462;16.898;2023-03-30T04:06:05;99826.93;;;7.90;100.00
32873;BME280;19224;52.462;16.898;2023-03-30T04:08:36;99822.51;;;7.89;100.00
32873;BME280;19224;52.462;16.898;2023-03-30T04:11:09;99826.37;;;7.82;100.00
32873;BME280;19224;52.462;16.898;2023-03-30T04:13:40;99822.34;;;7.82;100.00
32873;BME280;19224;52.462;16.898;2023-03-30T04:16:11;99820.87;;;7.85;100.00
32873;BME280;19224;52.462;16.898;2023-03-30T04:18:41;99814.17;;;7.85;100.00
32873;BME280;19224;52.462;16.898;2023-03-30T04:21:12;99819.53;;;7.85;100.00
32873;BME280;19224;52.462;16.898;2023-03-30T04:23:44;99813.91;;;7.81;100.00
32873;BME280;19224;52.462;16.898;2023-03-30T04:26:16;99812.48;;;7.83;100.00
32873;BME280;19224;52.462;16.898;2023-03-30T04:28:48;99814.30;;;7.82;100.00
32873;BME280;19224;52.462;16.898;2023-03-30T04:31:21;99802.78;;;7.80;100.00
32873;BME280;19224;52.462;16.898;2023-03-30T04:33:53;99801.44;;;7.80;100.00
32873;BME280;19224;52.462;16.898;2023-03-30T04:36:24;99802.78;;;7.80;100.00
32873;BME280;19224;52.462;16.898;2023-03-30T04:38:55;99805.91;;;7.80;100.00
32873;BME280;19224;52.462;16.898;2023-03-30T04:41:31;99794.39;;;7.78;100.00
32873;BME280;19224;52.462;16.898;2023-03-30T04:44:06;99796.18;;;7.77;100.00
32873;BME280;19224;52.462;16.898;2023-03-30T04:46:37;99796.61;;;7.78;100.00
32873;BME280;19224;52.462;16.898;2023-03-30T04:49:08;99793.45;;;7.79;100.00
32873;BME280;19224;52.462;16.898;2023-03-30T04:51:41;99797.02;;;7.79;100.00
32873;BME280;19224;52.462;16.898;2023-03-30T04:54:16;99783.42;;;7.84;100.00
32873;BME280;19224;52.462;16.898;2023-03-30T04:56:49;99784.55;;;7.78;100.00
32873;BME280;19224;52.462;16.898;2023-03-30T04:59:29;99775.41;;;7.72;100.00
32873;BME280;19224;52.462;16.898;2023-03-30T05:01:59;99768.33;;;7.81;100.00
32873;BME280;19224;52.462;16.898;2023-03-30T05:04:31;99775.97;;;7.80;100.00
32873;BME280;19224;52.462;16.898;2023-03-30T05:07:02;99769.38;;;7.77;100.00
32873;BME280;19224;52.462;16.898;2023-03-30T05:09:32;99764.91;;;7.78;100.00
32873;BME280;19224;52.462;16.898;2023-03-30T05:12:03;99757.75;;;7.78;100.00
32873;BME280;19224;52.462;16.898;2023-03-30T05:14:33;99757.13;;;7.82;100.00
32873;BME280;19224;52.462;16.898;2023-03-30T05:17:04;99761.84;;;7.87;100.00
32873;BME280;19224;52.462;16.898;2023-03-30T05:19:34;99767.81;;;7.93;100.00
32873;BME280;19224;52.462;16.898;2023-03-30T05:22:05;99764.59;;;7.95;100.00
32873;BME280;19224;52.462;16.898;2023-03-30T05:24:35;99754.95;;;8.01;100.00
32873;BME280;19224;52.462;16.898;2023-03-30T05:27:06;99759.09;;;8.08;100.00
32873;BME280;19224;52.462;16.898;2023-03-30T05:29:36;99759.05;;;8.10;100.00
32873;BME280;19224;52.462;16.898;2023-03-30T05:32:07;99756.36;;;8.10;100.00
32873;BME280;19224;52.462;16.898;2023-03-30T05:34:37;99751.40;;;8.11;100.00
32873;BME280;19224;52.462;16.898;2023-03-30T05:37:08;99746.23;;;8.16;100.00
32873;BME280;19224;52.462;16.898;2023-03-30T05:39:39;99736.28;;;8.20;100.00
32873;BME280;19224;52.462;16.898;2023-03-30T05:42:16;99739.42;;;8.19;100.00
32873;BME280;19224;52.462;16.898;2023-03-30T05:44:48;99746.52;;;8.30;100.00
32873;BME280;19224;52.462;16.898;2023-03-30T05:47:19;99738.48;;;8.30;100.00
32873;BME280;19224;52.462;16.898;2023-03-30T05:49:50;99733.25;;;8.37;100.00
32873;BME280;19224;52.462;16.898;2023-03-30T05:52:20;99742.89;;;8.41;100.00
32873;BME280;19224;52.462;16.898;2023-03-30T05:54:56;99739.41;;;8.39;100.00
32873;BME280;19224;52.462;16.898;2023-03-30T05:57:29;99742.23;;;8.46;100.00
32873;BME280;19224;52.462;16.898;2023-03-30T06:00:01;99736.72;;;8.49;100.00
32873;BME280;19224;52.462;16.898;2023-03-30T06:02:33;99738.75;;;8.44;100.00
32873;BME280;19224;52.462;16.898;2023-03-30T06:05:07;99742.14;;;8.48;100.00
32873;BME280;19224;52.462;16.898;2023-03-30T06:07:39;99744.92;;;8.46;100.00
32873;BME280;19224;52.462;16.898;2023-03-30T06:10:10;99736.27;;;8.50;100.00
32873;BME280;19224;52.462;16.898;2023-03-30T06:12:44;99751.67;;;8.55;100.00
32873;BME280;19224;52.462;16.898;2023-03-30T06:15:18;99753.22;;;8.50;100.00
32873;BME280;19224;52.462;16.898;2023-03-30T06:17:47;99753.47;;;8.54;100.00
32873;BME280;19224;52.462;16.898;2023-03-30T06:20:20;99750.37;;;8.63;100.00
32873;BME280;19224;52.462;16.898;2023-03-30T06:22:53;99750.58;;;8.59;100.00
32873;BME280;19224;52.462;16.898;2023-03-30T06:25:23;99742.17;;;8.66;100.00
32873;BME280;19224;52.462;16.898;2023-03-30T06:27:55;99738.83;;;8.71;100.00
32873;BME280;19224;52.462;16.898;2023-03-30T06:30:28;99726.05;;;8.76;100.00
32873;BME280;19224;52.462;16.898;2023-03-30T06:32:58;99722.54;;;8.84;100.00
32873;BME280;19224;52.462;16.898;2023-03-30T06:35:29;99715.64;;;8.97;100.00
32873;BME280;19224;52.462;16.898;2023-03-30T06:38:01;99710.94;;;9.02;100.00
32873;BME280;19224;52.462;16.898;2023-03-30T06:40:32;99695.73;;;9.11;100.00
32873;BME280;19224;52.462;16.898;2023-03-30T06:43:05;99685.38;;;9.12;100.00
32873;BME280;19224;52.462;16.898;2023-03-30T06:45:38;99691.15;;;9.13;100.00
32873;BME280;19224;52.462;16.898;2023-03-30T06:48:10;99690.83;;;9.19;100.00
32873;BME280;19224;52.462;16.898;2023-03-30T06:50:41;99685.86;;;9.20;100.00
32873;BME280;19224;52.462;16.898;2023-03-30T06:53:13;99684.95;;;9.30;100.00
32873;BME280;19224;52.462;16.898;2023-03-30T06:55:55;99675.78;;;9.34;100.00
32873;BME280;19224;52.462;16.898;2023-03-30T06:58:26;99681.22;;;9.32;100.00
32873;BME280;19224;52.462;16.898;2023-03-30T07:01:07;99687.08;;;9.32;100.00
32873;BME280;19224;52.462;16.898;2023-03-30T07:03:39;99689.77;;;9.32;100.00
32873;BME280;19224;52.462;16.898;2023-03-30T07:06:10;99698.84;;;9.29;100.00
32873;BME280;19224;52.462;16.898;2023-03-30T07:08:43;99691.73;;;9.28;100.00
32873;BME280;19224;52.462;16.898;2023-03-30T07:11:16;99698.50;;;9.18;100.00
32873;BME280;19224;52.462;16.898;2023-03-30T07:13:46;99696.36;;;9.16;100.00
32873;BME280;19224;52.462;16.898;2023-03-30T07:16:17;99700.45;;;9.15;100.00
32873;BME280;19224;52.462;16.898;2023-03-30T07:18:47;99692.40;;;9.15;100.00
32873;BME280;19224;52.462;16.898;2023-03-30T07:21:18;99693.69;;;9.25;100.00
32873;BME280;19224;52.462;16.898;2023-03-30T07:24:00;99690.55;;;9.25;100.00
32873;BME280;19224;52.462;16.898;2023-03-30T07:26:30;99680.20;;;9.26;100.00
32873;BME280;19224;52.462;16.898;2023-03-30T07:29:01;99680.37;;;9.32;100.00
32873;BME280;19224;52.462;16.898;2023-03-30T07:31:32;99682.66;;;9.39;100.00
32873;BME280;19224;52.462;16.898;2023-03-30T07:34:05;99679.52;;;9.40;100.00
32873;BME280;19224;52.462;16.898;2023-03-30T07:36:39;99675.48;;;9.40;100.00
32873;BME280;19224;52.462;16.898;2023-03-30T07:39:12;99669.95;;;9.51;100.00
32873;BME280;19224;52.462;16.898;2023-03-30T07:41:42;99667.66;;;9.52;100.00
32873;BME280;19224;52.462;16.898;2023-03-30T07:44:13;99666.09;;;9.56;100.00
32873;BME280;19224;52.462;16.898;2023-03-30T07:46:44;99667.36;;;9.66;100.00
32873;BME280;19224;52.462;16.898;2023-03-30T07:49:21;99651.45;;;9.70;100.00
32873;BME280;19224;52.462;16.898;2023-03-30T07:51:53;99647.50;;;9.86;100.00
32873;BME280;19224;52.462;16.898;2023-03-30T07:54:24;99642.21;;;9.93;100.00
32873;BME280;19224;52.462;16.898;2023-03-30T07:56:55;99641.89;;;10.16;100.00
32873;BME280;19224;52.462;16.898;2023-03-30T07:59:30;99642.02;;;10.30;100.00
32873;BME280;19224;52.462;16.898;2023-03-30T08:02:09;99644.11;;;10.49;100.00
32873;BME280;19224;52.462;16.898;2023-03-30T08:04:41;99634.69;;;10.49;100.00
32873;BME280;19224;52.462;16.898;2023-03-30T08:07:12;99631.06;;;10.65;100.00
32873;BME280;19224;52.462;16.898;2023-03-30T08:09:44;99623.38;;;10.66;100.00
32873;BME280;19224;52.462;16.898;2023-03-30T08:12:15;99617.55;;;10.74;100.00
32873;BME280;19224;52.462;16.898;2023-03-30T08:14:50;99614.42;;;10.81;100.00
32873;BME280;19224;52.462;16.898;2023-03-30T08:17:24;99608.52;;;10.90;100.00
32873;BME280;19224;52.462;16.898;2023-03-30T08:19:55;99612.17;;;10.89;100.00
32873;BME280;19224;52.462;16.898;2023-03-30T08:22:32;99598.31;;;10.88;100.00
32873;BME280;19224;52.462;16.898;2023-03-30T08:24:58;99596.50;;;10.89;100.00
32873;BME280;19224;52.462;16.898;2023-03-30T08:27:36;99592.71;;;11.00;100.00
32873;BME280;19224;52.462;16.898;2023-03-30T08:30:09;99590.99;;;11.06;100.00
32873;BME280;19224;52.462;16.898;2023-03-30T08:32:41;99585.99;;;11.07;100.00
32873;BME280;19224;52.462;16.898;2023-03-30T08:35:16;99584.26;;;11.06;100.00
32873;BME280;19224;52.462;16.898;2023-03-30T08:37:46;99593.17;;;11.22;100.00
32873;BME280;19224;52.462;16.898;2023-03-30T08:40:18;99587.75;;;11.37;100.00
32873;BME280;19224;52.462;16.898;2023-03-30T08:43:02;99578.66;;;11.47;100.00
32873;BME280;19224;52.462;16.898;2023-03-30T08:45:40;99567.02;;;11.53;100.00
32873;BME280;19224;52.462;16.898;2023-03-30T08:53:45;99566.89;;;11.63;100.00
32873;BME280;19224;52.462;16.898;2023-03-30T08:56:23;99565.38;;;11.73;100.00
32873;BME280;19224;52.462;16.898;2023-03-30T09:05:34;99536.00;;;12.03;100.00
32873;BME280;19224;52.462;16.898;2023-03-30T09:08:16;99541.88;;;12.10;100.00
32873;BME280;19224;52.462;16.898;2023-03-30T09:11:12;99534.26;;;12.16;100.00
32873;BME280;19224;52.462;16.898;2023-03-30T09:13:48;99531.63;;;12.36;100.00
32873;BME280;19224;52.462;16.898;2023-03-30T09:16:37;99531.52;;;12.51;100.00
32873;BME280;19224;52.462;16.898;2023-03-30T09:19:20;99523.33;;;12.53;100.00
32873;BME280;19224;52.462;16.898;2023-03-30T09:21:50;99499.65;;;12.63;100.00
32873;BME280;19224;52.462;16.898;2023-03-30T09:24:29;99508.25;;;12.63;100.00
32873;BME280;19224;52.462;16.898;2023-03-30T09:29:48;99496.93;;;12.77;100.00
32873;BME280;19224;52.462;16.898;2023-03-30T09:32:32;99493.81;;;12.76;100.00
32873;BME280;19224;52.462;16.898;2023-03-30T09:35:18;99491.70;;;12.74;100.00
32873;BME280;19224;52.462;16.898;2023-03-30T09:37:50;99488.26;;;12.92;100.00
32873;BME280;19224;52.462;16.898;2023-03-30T09:43:27;99491.50;;;13.11;100.00
32873;BME280;19224;52.462;16.898;2023-03-30T09:45:53;99486.98;;;13.24;100.00
32873;BME280;19224;52.462;16.898;2023-03-30T09:48:24;99476.53;;;13.12;100.00
32873;BME280;19224;52.462;16.898;2023-03-30T09:50:55;99474.81;;;13.11;100.00
32873;BME280;19224;52.462;16.898;2023-03-30T09:53:26;99473.02;;;13.17;100.00
32873;BME280;19224;52.462;16.898;2023-03-30T09:56:07;99462.91;;;13.33;100.00
32873;BME280;19224;52.462;16.898;2023-03-30T09:58:39;99466.92;;;13.53;100.00
32873;BME280;19224;52.462;16.898;2023-03-30T10:01:17;99470.59;;;13.64;100.00
32873;BME280;19224;52.462;16.898;2023-03-30T10:04:10;99460.92;;;13.67;100.00
32873;BME280;19224;52.462;16.898;2023-03-30T10:06:48;99462.86;;;13.78;100.00
32873;BME280;19224;52.462;16.898;2023-03-30T10:09:21;99453.63;;;13.93;100.00
32873;BME280;19224;52.462;16.898;2023-03-30T10:11:54;99452.27;;;14.05;100.00
32873;BME280;19224;52.462;16.898;2023-03-30T10:14:37;99452.32;;;14.11;100.00
32873;BME280;19224;52.462;16.898;2023-03-30T10:17:19;99446.95;;;14.16;100.00
32873;BME280;19224;52.462;16.898;2023-03-30T10:20:16;99439.66;;;14.11;100.00
32873;BME280;19224;52.462;16.898;2023-03-30T10:23:10;99436.07;;;14.11;100.00
32873;BME280;19224;52.462;16.898;2023-03-30T10:25:38;99432.39;;;13.99;100.00
32873;BME280;19224;52.462;16.898;2023-03-30T10:28:20;99435.05;;;14.06;100.00
32873;BME280;19224;52.462;16.898;2023-03-30T10:31:02;99436.30;;;14.08;100.00
32873;BME280;19224;52.462;16.898;2023-03-30T10:33:39;99442.84;;;13.98;100.00
32873;BME280;19224;52.462;16.898;2023-03-30T10:36:14;99440.42;;;13.88;100.00
32873;BME280;19224;52.462;16.898;2023-03-30T10:38:48;99445.22;;;13.85;100.00
32873;BME280;19224;52.462;16.898;2023-03-30T10:41:38;99445.69;;;13.72;100.00
32873;BME280;19224;52.462;16.898;2023-03-30T10:44:30;99438.56;;;13.58;100.00
32873;BME280;19224;52.462;16.898;2023-03-30T10:47:48;99442.78;;;13.62;100.00
32873;BME280;19224;52.462;16.898;2023-03-30T10:59:16;99425.62;;;13.81;100.00
32873;BME280;19224;52.462;16.898;2023-03-30T11:08:10;99412.22;;;14.16;100.00
32873;BME280;19224;52.462;16.898;2023-03-30T11:10:52;99400.75;;;14.25;100.00
32873;BME280;19224;52.462;16.898;2023-03-30T11:16:20;99391.09;;;14.56;100.00
32873;BME280;19224;52.462;16.898;2023-03-30T11:19:31;99388.48;;;14.55;100.00
32873;BME280;19224;52.462;16.898;2023-03-30T11:24:40;99382.61;;;14.61;100.00
32873;BME280;19224;52.462;16.898;2023-03-30T11:27:38;99385.13;;;14.75;100.00
32873;BME280;19224;52.462;16.898;2023-03-30T11:30:23;99389.75;;;14.85;100.00
32873;BME280;19224;52.462;16.898;2023-03-30T11:33:40;99378.27;;;14.82;99.66
32873;BME280;19224;52.462;16.898;2023-03-30T11:36:17;99381.92;;;14.70;100.00
32873;BME280;19224;52.462;16.898;2023-03-30T11:39:04;99386.81;;;14.65;100.00
32873;BME280;19224;52.462;16.898;2023-03-30T11:42:02;99380.34;;;14.55;100.00
32873;BME280;19224;52.462;16.898;2023-03-30T11:44:33;99369.63;;;14.48;100.00
32873;BME280;19224;52.462;16.898;2023-03-30T11:53:14;99369.48;;;14.44;100.00
32873;BME280;19224;52.462;16.898;2023-03-30T11:55:59;99368.55;;;14.33;100.00
32873;BME280;19224;52.462;16.898;2023-03-30T11:58:34;99366.65;;;14.22;100.00
32873;BME280;19224;52.462;16.898;2023-03-30T12:06:47;99368.10;;;14.08;100.00
32873;BME280;19224;52.462;16.898;2023-03-30T12:12:36;99364.88;;;14.03;100.00
32873;BME280;19224;52.462;16.898;2023-03-30T12:21:43;99345.80;;;14.35;100.00
32873;BME280;19224;52.462;16.898;2023-03-30T12:26:46;99342.81;;;14.56;100.00
32873;BME280;19224;52.462;16.898;2023-03-30T12:29:19;99343.69;;;14.62;100.00
32873;BME280;19224;52.462;16.898;2023-03-30T12:32:03;99342.59;;;14.64;100.00
32873;BME280;19224;52.462;16.898;2023-03-30T12:34:40;99336.71;;;14.76;100.00
32873;BME280;19224;52.462;16.898;2023-03-30T12:37:34;99333.17;;;14.81;100.00
32873;BME280;19224;52.462;16.898;2023-03-30T12:40:21;99336.16;;;14.89;100.00
32873;BME280;19224;52.462;16.898;2023-03-30T12:43:21;99338.27;;;14.91;100.00
32873;BME280;19224;52.462;16.898;2023-03-30T12:46:13;99330.16;;;15.02;100.00
32873;BME280;19224;52.462;16.898;2023-03-30T12:48:52;99322.87;;;15.08;100.00
32873;BME280;19224;52.462;16.898;2023-03-30T12:51:37;99311.83;;;15.22;100.00
32873;BME280;19224;52.462;16.898;2023-03-30T12:54:37;99309.02;;;15.34;100.00
32873;BME280;19224;52.462;16.898;2023-03-30T12:57:28;99301.98;;;15.48;99.46
32873;BME280;19224;52.462;16.898;2023-03-30T13:05:52;99292.59;;;15.91;97.00
32873;BME280;19224;52.462;16.898;2023-03-30T13:08:43;99285.98;;;16.10;96.09
32873;BME280;19224;52.462;16.898;2023-03-30T13:11:19;99288.80;;;16.25;95.30
32873;BME280;19224;52.462;16.898;2023-03-30T13:13:59;99281.02;;;16.26;94.61
32873;BME280;19224;52.462;16.898;2023-03-30T13:19:40;99285.81;;;16.28;94.76
32873;BME280;19224;52.462;16.898;2023-03-30T13:27:50;99288.29;;;15.72;98.06
32873;BME280;19224;52.462;16.898;2023-03-30T13:30:23;99279.53;;;15.63;98.71
32873;BME280;19224;52.462;16.898;2023-03-30T13:33:16;99280.64;;;15.55;99.69
32873;BME280;19224;52.462;16.898;2023-03-30T13:36:23;99276.57;;;15.44;100.00
32873;BME280;19224;52.462;16.898;2023-03-30T13:39:05;99265.20;;;15.28;100.00
32873;BME280;19224;52.462;16.898;2023-03-30T13:41:48;99262.23;;;15.20;100.00
32873;BME280;19224;52.462;16.898;2023-03-30T13:44:42;99242.77;;;15.15;100.00
32873;BME280;19224;52.462;16.898;2023-03-30T13:50:28;99252.52;;;15.23;100.00
32873;BME280;19224;52.462;16.898;2023-03-30T13:53:09;99244.48;;;15.16;100.00
32873;BME280;19224;52.462;16.898;2023-03-30T13:55:45;99238.70;;;15.15;100.00
32873;BME280;19224;52.462;16.898;2023-03-30T13:58:25;99238.44;;;15.12;100.00
32873;BME280;19224;52.462;16.898;2023-03-30T14:01:04;99234.52;;;15.11;100.00
32873;BME280;19224;52.462;16.898;2023-03-30T14:03:49;99236.97;;;15.14;100.00
32873;BME280;19224;52.462;16.898;2023-03-30T14:06:31;99227.48;;;15.14;100.00
32873;BME280;19224;52.462;16.898;2023-03-30T14:09:25;99222.17;;;15.12;100.00
32873;BME280;19224;52.462;16.898;2023-03-30T14:11:55;99214.28;;;15.15;100.00
32873;BME280;19224;52.462;16.898;2023-03-30T14:14:41;99205.78;;;15.14;100.00
32873;BME280;19224;52.462;16.898;2023-03-30T14:17:22;99203.19;;;15.12;100.00
32873;BME280;19224;52.462;16.898;2023-03-30T14:20:03;99205.53;;;15.06;100.00
32873;BME280;19224;52.462;16.898;2023-03-30T14:22:37;99200.72;;;15.04;100.00
32873;BME280;19224;52.462;16.898;2023-03-30T14:25:39;99192.22;;;15.03;100.00
32873;BME280;19224;52.462;16.898;2023-03-30T14:28:20;99195.55;;;15.01;100.00
32873;BME280;19224;52.462;16.898;2023-03-30T14:31:00;99189.88;;;15.09;100.00
32873;BME280;19224;52.462;16.898;2023-03-30T14:33:48;99186.42;;;15.24;100.00
32873;BME280;19224;52.462;16.898;2023-03-30T14:36:20;99172.61;;;15.43;100.00
32873;BME280;19224;52.462;16.898;2023-03-30T14:38:52;99163.54;;;15.65;100.00
32873;BME280;19224;52.462;16.898;2023-03-30T14:41:28;99150.02;;;15.91;100.00
32873;BME280;19224;52.462;16.898;2023-03-30T14:44:09;99146.84;;;16.12;100.00
32873;BME280;19224;52.462;16.898;2023-03-30T14:46:48;99142.13;;;16.40;100.00
32873;BME280;19224;52.462;16.898;2023-03-30T14:52:08;99128.67;;;16.59;100.00
32873;BME280;19224;52.462;16.898;2023-03-30T14:54:44;99131.55;;;16.52;100.00
32873;BME280;19224;52.462;16.898;2023-03-30T14:57:16;99132.22;;;16.44;100.00
32873;BME280;19224;52.462;16.898;2023-03-30T14:59:54;99120.91;;;16.34;100.00
32873;BME280;19224;52.462;16.898;2023-03-30T15:02:32;99126.92;;;16.17;100.00
32873;BME280;19224;52.462;16.898;2023-03-30T15:05:08;99123.90;;;16.05;100.00
32873;BME280;19224;52.462;16.898;2023-03-30T15:07:40;99132.01;;;15.90;100.00
32873;BME280;19224;52.462;16.898;2023-03-30T15:10:32;99136.88;;;15.75;100.00
32873;BME280;19224;52.462;16.898;2023-03-30T15:13:04;99134.56;;;15.65;100.00
32873;BME280;19224;52.462;16.898;2023-03-30T15:15:36;99138.15;;;15.55;100.00
32873;BME280;19224;52.462;16.898;2023-03-30T15:18:09;99143.24;;;15.43;100.00
32873;BME280;19224;52.462;16.898;2023-03-30T15:20:43;99146.12;;;15.36;100.00
32873;BME280;19224;52.462;16.898;2023-03-30T15:23:14;99136.97;;;15.26;100.00
32873;BME280;19224;52.462;16.898;2023-03-30T15:25:45;99145.12;;;15.20;100.00
32873;BME280;19224;52.462;16.898;2023-03-30T15:28:20;99142.88;;;15.20;100.00
32873;BME280;19224;52.462;16.898;2023-03-30T15:30:52;99140.69;;;15.14;100.00
32873;BME280;19224;52.462;16.898;2023-03-30T15:33:38;99141.91;;;15.10;100.00
32873;BME280;19224;52.462;16.898;2023-03-30T15:38:54;99151.91;;;15.09;100.00
32873;BME280;19224;52.462;16.898;2023-03-30T15:41:57;99147.84;;;15.04;100.00